createdAt,value
2022-09-03T00:02:22.400Z,53.79
2022-09-03T00:07:20.604Z,54.19
2022-09-03T00:12:20.782Z,53.86
2022-09-03T00:17:20.950Z,53.89
2022-09-03T00:22:20.114Z,53.17
2022-09-03T00:27:17.276Z,53.79
2022-09-03T00:32:17.441Z,52.42
2022-09-03T00:37:15.741Z,54.84
2022-09-03T00:42:14.781Z,54.22
2022-09-03T00:47:13.945Z,54.52
2022-09-03T00:52:14.094Z,54.19
2022-09-03T00:57:16.254Z,53.99
2022-09-03T01:02:11.521Z,53.94
2022-09-03T01:07:10.547Z,54.32
2022-09-03T01:12:10.701Z,54.24
2022-09-03T01:17:10.855Z,54.64
2022-09-03T01:22:07.997Z,54.24
2022-09-03T01:27:08.165Z,54.84
2022-09-03T01:32:06.309Z,54.64
2022-09-03T01:37:06.473Z,54.11
2022-09-03T01:42:04.646Z,53.79
2022-09-03T01:47:03.825Z,52.69
2022-09-03T01:52:04.983Z,53.72
2022-09-03T01:57:03.165Z,53.49
2022-09-03T02:02:01.464Z,53.22
2022-09-03T02:07:02.633Z,53.09
2022-09-03T02:11:59.789Z,52.37
2022-09-03T02:16:58.981Z,51.82
2022-09-03T02:21:58.141Z,53.12
2022-09-03T02:26:59.314Z,53.29
2022-09-03T02:31:57.465Z,52.89
2022-09-03T02:36:56.658Z,53.12
2022-09-03T02:41:54.808Z,53.72
2022-09-03T02:46:54.009Z,52.76
2022-09-03T02:51:54.184Z,52.79
2022-09-03T02:56:52.353Z,53.19
2022-09-03T03:01:52.561Z,52.27
2022-09-03T03:06:52.775Z,52.69
2022-09-03T03:11:50.902Z,52.17
2022-09-03T03:16:49.105Z,52.37
2022-09-03T03:21:47.298Z,51.57
2022-09-03T03:26:47.507Z,51.77
2022-09-03T03:31:46.720Z,51.77
2022-09-03T03:36:45.902Z,51.27
2022-09-03T03:41:45.181Z,52.42
2022-09-03T03:46:45.341Z,52.97
2022-09-03T03:51:45.559Z,52.74
2022-09-03T03:56:43.713Z,53.14
2022-09-03T04:01:42.077Z,52.92
2022-09-03T04:06:42.277Z,52.59
2022-09-03T04:11:40.458Z,53.14
2022-09-03T04:16:40.710Z,52.39
2022-09-03T04:21:38.904Z,53.44
2022-09-03T04:26:39.070Z,52.49
2022-09-03T04:31:37.245Z,52.19
2022-09-03T04:36:38.465Z,52.00
2022-09-03T04:41:36.620Z,52.29
2022-09-03T04:46:38.919Z,52.00
2022-09-03T04:51:35.075Z,52.29
2022-09-03T04:56:34.237Z,52.32
2022-09-03T05:01:32.535Z,52.00
2022-09-03T05:06:31.716Z,52.29
2022-09-03T05:11:30.867Z,52.00
2022-09-03T05:16:30.185Z,51.79
2022-09-03T05:21:29.239Z,51.70
2022-09-03T05:26:29.389Z,51.40
2022-09-03T05:31:28.602Z,52.32
2022-09-03T05:36:27.756Z,52.62
2022-09-03T05:41:25.920Z,54.69
2022-09-03T05:46:25.085Z,54.37
2022-09-03T05:51:26.242Z,52.64
2022-09-03T05:56:24.387Z,52.94
2022-09-03T06:01:23.558Z,54.94
2022-09-03T06:06:21.716Z,53.97
2022-09-03T06:11:21.904Z,54.79
2022-09-03T06:16:22.498Z,54.06
2022-09-03T06:21:18.302Z,55.32
2022-09-03T06:26:19.479Z,54.60
2022-09-03T06:31:17.669Z,53.54
2022-09-03T06:36:17.819Z,53.84
2022-09-03T06:41:16.027Z,54.14
2022-09-03T06:46:16.246Z,53.67
2022-09-03T06:51:15.380Z,54.47
2022-09-03T06:56:14.524Z,53.94
2022-09-03T07:01:12.786Z,53.22
2022-09-03T07:06:12.818Z,53.52
2022-09-03T07:11:10.994Z,52.99
2022-09-03T07:16:11.271Z,53.42
2022-09-03T07:21:09.486Z,53.42
2022-09-03T07:26:09.666Z,52.49
2022-09-03T07:31:08.849Z,52.69
2022-09-03T07:36:07.063Z,54.27
2022-09-03T07:41:06.253Z,53.22
2022-09-03T07:46:05.430Z,53.84
2022-09-03T07:51:04.618Z,55.09
2022-09-03T07:56:03.781Z,54.99
2022-09-03T08:01:02.992Z,55.32
2022-09-03T08:06:02.163Z,54.04
2022-09-03T08:11:02.335Z,53.94
2022-09-03T08:16:00.571Z,54.86
2022-09-03T08:20:59.765Z,55.92
2022-09-03T08:25:59.066Z,54.57
2022-09-03T08:30:59.394Z,55.40
2022-09-03T08:35:57.512Z,54.34
2022-09-03T08:40:56.804Z,53.92
2022-09-03T08:45:56.117Z,54.11
2022-09-03T08:50:57.431Z,54.22
2022-09-03T08:55:53.729Z,54.41
2022-09-03T09:00:55.041Z,54.82
2022-09-03T09:05:53.388Z,55.41
2022-09-03T09:10:54.650Z,54.39
2022-09-03T09:15:53.031Z,54.39
2022-09-03T09:20:51.150Z,54.57
2022-09-03T09:25:51.274Z,54.16
2022-09-03T09:30:50.605Z,53.94
2022-09-03T09:35:48.707Z,53.64
2022-09-03T09:40:48.040Z,53.74
2022-09-03T09:45:47.189Z,53.14
2022-09-03T09:50:46.322Z,52.34
2022-09-03T09:55:46.676Z,52.14
2022-09-03T10:00:45.812Z,52.44
2022-09-03T10:05:45.114Z,52.14
2022-09-03T10:10:43.411Z,52.25
2022-09-03T10:15:43.800Z,51.42
2022-09-03T10:20:42.929Z,51.22
2022-09-03T10:25:42.289Z,50.70
2022-09-03T10:30:40.607Z,50.90
2022-09-03T10:35:40.741Z,50.08
2022-09-03T10:40:39.029Z,50.48
2022-09-03T10:45:39.331Z,50.18
2022-09-03T10:50:37.628Z,50.18
2022-09-03T10:55:37.921Z,50.08
2022-09-03T11:00:36.325Z,49.85
2022-09-03T11:05:37.464Z,50.08
2022-09-03T11:10:34.558Z,51.59
2022-09-03T11:15:33.932Z,50.49
2022-09-03T11:20:33.071Z,53.44
2022-09-03T11:25:33.374Z,59.27
2022-09-03T11:30:32.720Z,68.05
2022-09-03T11:35:52.158Z,99.99
2022-09-03T13:21:46.906Z,56.99
2022-09-03T13:26:48.184Z,60.50
2022-09-03T13:31:47.454Z,57.34
2022-09-03T13:36:45.747Z,55.32
2022-09-03T13:41:46.060Z,58.06
2022-09-03T13:46:46.352Z,51.07
2022-09-03T13:51:43.645Z,52.29
2022-09-03T13:56:42.981Z,52.29
2022-09-03T14:01:42.232Z,52.39
2022-09-03T14:06:41.501Z,49.44
2022-09-03T14:11:41.769Z,47.91
2022-09-03T14:16:40.193Z,50.85
2022-09-03T14:21:38.252Z,52.36
2022-09-03T14:26:39.790Z,49.64
2022-09-03T14:31:37.721Z,52.96
2022-09-03T14:36:37.021Z,53.67
2022-09-03T14:41:37.330Z,54.94
2022-09-03T14:46:36.587Z,51.28
2022-09-03T14:51:34.879Z,50.73
2022-09-03T14:56:34.142Z,52.98
2022-09-03T15:01:39.033Z,47.20
2022-09-03T15:06:32.583Z,49.96
2022-09-03T15:11:31.882Z,51.47
2022-09-03T15:16:31.265Z,48.75
2022-09-03T15:21:30.431Z,47.91
2022-09-03T15:26:29.754Z,48.53
2022-09-03T15:31:30.092Z,49.47
2022-09-03T15:36:28.168Z,48.18
2022-09-03T15:41:26.439Z,48.88
2022-09-03T15:46:27.733Z,48.11
2022-09-03T15:51:26.036Z,48.70
2022-09-03T15:56:26.360Z,49.32
2022-09-03T16:01:26.717Z,52.19
2022-09-03T16:06:24.933Z,52.51
2022-09-03T16:11:24.195Z,52.24
2022-09-03T16:16:21.477Z,53.02
2022-09-03T16:21:22.771Z,52.54
2022-09-03T16:26:22.018Z,54.48
2022-09-03T16:31:20.272Z,54.58
2022-09-03T16:36:20.520Z,54.60
2022-09-03T16:41:20.749Z,56.18
2022-09-03T16:46:18.067Z,56.43
2022-09-03T16:51:18.352Z,55.68
2022-09-03T16:56:17.950Z,56.01
2022-09-03T17:01:16.034Z,56.51
2022-09-03T17:06:16.031Z,56.90
2022-09-03T17:11:15.370Z,55.38
2022-09-03T17:16:20.332Z,56.10
2022-09-03T17:21:13.887Z,54.88
2022-09-03T17:26:12.819Z,54.06
2022-09-03T17:31:12.356Z,53.78
2022-09-03T17:36:10.547Z,54.71
2022-09-03T17:41:09.691Z,54.91
2022-09-03T17:46:10.948Z,54.19
2022-09-03T17:51:09.094Z,54.38
2022-09-03T17:56:07.251Z,55.01
2022-09-03T18:01:07.404Z,55.80
2022-09-03T18:06:06.547Z,55.71
2022-09-03T18:11:05.942Z,55.71
2022-09-03T18:16:05.161Z,55.80
2022-09-03T18:21:22.916Z,56.23
2022-09-03T18:26:04.563Z,55.91
2022-09-03T18:31:02.763Z,59.14
2022-09-03T18:36:00.950Z,56.53
2022-09-03T18:41:02.235Z,55.61
2022-09-03T18:50:58.905Z,55.91
2022-09-03T18:55:58.026Z,55.71
2022-09-03T19:00:57.240Z,56.73
2022-09-03T19:05:56.411Z,56.96
2022-09-03T19:10:56.713Z,59.88
2022-09-03T19:15:56.110Z,58.25
2022-09-03T19:20:54.271Z,56.51
2022-09-03T19:25:53.603Z,56.21
2022-09-03T19:30:53.773Z,56.18
2022-09-03T19:35:51.763Z,56.38
2022-09-03T19:40:51.059Z,56.08
2022-09-03T19:45:52.444Z,56.87
2022-09-03T19:50:50.718Z,58.85
2022-09-03T19:55:48.915Z,60.21
2022-09-03T20:00:47.926Z,61.26
2022-09-03T20:05:48.161Z,59.81
2022-09-03T20:10:46.488Z,60.61
2022-09-03T20:15:46.702Z,58.95
2022-09-03T20:20:44.860Z,58.45
2022-09-03T20:25:43.910Z,58.88
2022-09-03T20:30:43.279Z,60.21
2022-09-03T20:35:42.321Z,62.16
2022-09-03T20:40:42.482Z,62.89
2022-09-03T20:45:44.263Z,62.26
2022-09-03T20:50:39.861Z,60.31
2022-09-03T20:55:40.022Z,60.93
2022-09-03T21:00:38.170Z,59.38
2022-09-03T21:05:38.321Z,59.94
2022-09-03T21:10:36.484Z,60.00
2022-09-03T21:15:35.708Z,59.41
2022-09-03T21:20:34.821Z,58.58
2022-09-03T21:25:34.963Z,58.25
2022-09-03T21:30:34.110Z,57.65
2022-09-03T21:35:33.462Z,58.28
2022-09-03T21:40:32.449Z,58.08
2022-09-03T21:45:30.847Z,58.06
2022-09-03T21:50:30.985Z,58.91
2022-09-03T21:55:30.328Z,58.08
2022-09-03T22:00:28.468Z,57.78
2022-09-03T22:05:27.627Z,59.83
2022-09-03T22:10:27.917Z,61.52
2022-09-03T22:15:30.068Z,61.59
2022-09-03T22:20:25.398Z,59.83
2022-09-03T22:25:23.552Z,58.28
2022-09-03T22:30:23.732Z,57.98
2022-09-03T22:35:22.893Z,58.41
2022-09-03T22:40:22.045Z,57.15
2022-09-03T22:45:22.185Z,56.66
2022-09-03T22:50:19.312Z,56.46
2022-09-03T22:55:21.475Z,56.16
2022-09-03T23:00:18.606Z,56.33
2022-09-03T23:05:17.748Z,57.21
2022-09-03T23:10:22.619Z,57.91
2022-09-03T23:15:17.186Z,57.11
2022-09-03T23:20:16.434Z,57.93
2022-09-03T23:25:14.560Z,58.89
2022-09-03T23:30:13.911Z,56.98
2022-09-03T23:35:13.052Z,56.68
2022-09-03T23:40:13.194Z,55.76
2022-09-03T23:45:15.564Z,55.43
2022-09-03T23:50:10.814Z,55.24
2022-09-03T23:55:09.988Z,55.04
